Time;durP1;ratioP1;P1;durP2;ratioP2;P2;SDS_P1;SDS_P2;PMS_P1;PMS_P2;Temp;Humidity;BMP_temperature;BMP_pressure;BME280_temperature;BME280_humidity;BME280_pressure;Samples;Min_cycle;Max_cycle;Signal;HPM_P1;HPM_P2
2022/12/31 00:02:01;;;;;;;5.67;2.00;;;9.10;1.00;;;;;;6114394;23;42108;-84
2022/12/31 00:04:29;;;;;;;5.40;2.00;;;9.10;1.00;;;;;;6131635;23;20406;-85
2022/12/31 00:09:49;;;;;;;5.57;1.33;;;9.20;1.00;;;;;;6124086;23;20438;-86
2022/12/31 00:12:32;;;;;;;;;;;;;;;;;;;;;
2022/12/31 00:14:59;;;;;;;5.60;1.73;;;9.20;1.00;;;;;;6122049;23;38593;-85
2022/12/31 00:17:32;;;;;;;5.80;2.00;;;9.30;1.00;;;;;;6151255;23;20558;-85
2022/12/31 00:19:59;;;;;;;6.00;1.73;;;9.20;1.00;;;;;;6141276;23;20466;-85
2022/12/31 00:22:28;;;;;;;5.10;1.50;;;9.30;1.00;;;;;;6142470;23;20426;-84
2022/12/31 00:24:58;;;;;;;4.93;1.80;;;9.30;1.00;;;;;;6135104;23;20391;-85
2022/12/31 00:27:37;;;;;;;5.63;1.70;;;9.20;1.00;;;;;;6152239;23;20400;-85
2022/12/31 00:30:09;;;;;;;5.43;1.60;;;9.30;1.00;;;;;;6125693;23;20401;-85
2022/12/31 00:32:41;;;;;;;5.20;1.90;;;9.30;1.00;;;;;;6158507;23;20423;-85
2022/12/31 00:35:11;;;;;;;5.00;2.00;;;9.30;1.00;;;;;;6129986;23;20548;-85
2022/12/31 00:37:51;;;;;;;5.47;1.60;;;9.30;1.00;;;;;;6132873;23;20397;-85
2022/12/31 00:40:30;;;;;;;5.40;1.77;;;9.30;1.00;;;;;;6130947;23;20435;-87
2022/12/31 00:45:49;;;;;;;5.50;1.87;;;9.30;1.00;;;;;;6139186;23;20270;-86
2022/12/31 00:48:31;;;;;;;5.43;1.30;;;9.30;1.00;;;;;;6145335;23;20377;-86
2022/12/31 00:51:11;;;;;;;;;;;;;;;;;;;;;
2022/12/31 00:53:50;;;;;;;5.07;1.67;;;9.20;1.00;;;;;;6134069;23;41579;-86
2022/12/31 00:56:21;;;;;;;9.83;5.60;;;9.10;1.00;;;;;;6120154;23;20426;-88
2022/12/31 00:58:51;;;;;;;5.50;1.60;;;9.10;1.00;;;;;;6146073;23;20422;-85
2022/12/31 01:01:29;;;;;;;6.30;2.00;;;9.00;1.00;;;;;;6128643;23;20409;-86
2022/12/31 01:04:18;;;;;;;5.87;1.93;;;9.00;1.00;;;;;;6133856;23;21237;-86
2022/12/31 01:06:50;;;;;;;5.53;1.90;;;9.00;1.00;;;;;;6146736;23;20402;-87
2022/12/31 01:09:20;;;;;;;7.70;2.00;;;9.00;1.00;;;;;;6129711;23;20417;-85
2022/12/31 01:11:59;;;;;;;5.33;1.63;;;9.00;1.00;;;;;;6145290;23;20403;-86
2022/12/31 01:14:31;;;;;;;5.33;1.40;;;9.10;1.00;;;;;;6126484;23;20407;-86
2022/12/31 01:17:00;;;;;;;5.50;2.00;;;9.10;1.00;;;;;;6116530;23;20396;-84
2022/12/31 01:19:31;;;;;;;4.97;1.33;;;9.20;1.00;;;;;;6131629;23;20391;-85
2022/12/31 01:22:00;;;;;;;5.47;1.70;;;9.20;1.00;;;;;;6158591;23;20435;-86
2022/12/31 01:24:42;;;;;;;;;;;;;;;;;;;;;
2022/12/31 01:27:18;;;;;;;4.97;1.30;;;9.30;1.00;;;;;;6129499;23;40591;-86
2022/12/31 01:32:50;;;;;;;4.63;1.10;;;9.40;1.00;;;;;;6138166;23;21332;-86
2022/12/31 01:35:20;;;;;;;4.60;1.10;;;9.40;1.00;;;;;;6141456;23;20634;-87
2022/12/31 01:37:52;;;;;;;5.00;1.30;;;9.40;1.00;;;;;;6134354;23;20419;-85
2022/12/31 01:40:21;;;;;;;4.80;1.30;;;9.50;1.00;;;;;;6138304;23;20561;-85
2022/12/31 01:43:01;;;;;;;4.90;1.33;;;9.50;1.00;;;;;;6160351;23;20434;-88
2022/12/31 01:45:31;;;;;;;4.70;1.10;;;9.60;1.00;;;;;;6112012;23;20659;-86
2022/12/31 01:48:00;;;;;;;5.20;1.17;;;9.60;1.00;;;;;;6127243;23;20438;-86
2022/12/31 01:50:39;;;;;;;4.70;1.13;;;9.70;1.00;;;;;;6133320;23;20392;-87
2022/12/31 01:53:18;;;;;;;4.60;1.07;;;9.70;1.00;;;;;;6116346;23;20422;-86
2022/12/31 01:56:18;;;;;;;4.67;1.20;;;9.80;1.00;;;;;;6130389;23;20410;-88
2022/12/31 01:58:49;;;;;;;4.37;0.90;;;9.90;1.00;;;;;;6133972;23;20430;-86
2022/12/31 02:01:29;;;;;;;5.40;1.30;;;10.00;1.00;;;;;;6105367;23;20451;-87
2022/12/31 02:04:11;;;;;;;5.73;1.27;;;10.10;1.00;;;;;;6141205;23;21193;-87
2022/12/31 02:06:49;;;;;;;4.57;1.30;;;10.20;1.00;;;;;;6152314;23;20391;-88
2022/12/31 02:09:18;;;;;;;5.23;1.00;;;10.30;1.00;;;;;;6110701;23;20437;-87
2022/12/31 02:11:51;;;;;;;4.67;1.00;;;10.40;1.00;;;;;;6108872;23;20395;-88
2022/12/31 02:14:31;;;;;;;4.47;0.93;;;10.40;1.00;;;;;;6124612;23;20443;-87
2022/12/31 02:17:08;;;;;;;4.70;1.00;;;10.50;1.00;;;;;;6114902;23;20399;-86
2022/12/31 02:20:08;;;;;;;4.60;0.70;;;10.60;1.00;;;;;;6110162;23;21200;-85
2022/12/31 02:23:15;;;;;;;5.67;1.33;;;10.70;1.00;;;;;;6115849;23;20447;-86
2022/12/31 02:26:20;;;;;;;5.13;1.30;;;10.80;1.00;;;;;;6114762;23;20940;-86
2022/12/31 02:29:31;;;;;;;5.00;1.40;;;10.90;1.00;;;;;;6109795;23;20397;-85
2022/12/31 02:32:15;;;;;;;6.10;2.00;;;10.90;1.00;;;;;;6109000;23;20432;-85
2022/12/31 02:34:52;;;;;;;5.20;1.43;;;10.90;1.00;;;;;;6111453;23;20425;-85
2022/12/31 02:37:29;;;;;;;5.10;1.70;;;10.90;1.00;;;;;;6099642;23;20431;-85
2022/12/31 02:40:00;;;;;;;5.57;1.53;;;10.80;1.00;;;;;;6103169;23;20930;-85
2022/12/31 02:42:30;;;;;;;4.60;0.87;;;10.70;1.00;;;;;;6112075;23;20400;-86
2022/12/31 02:45:11;;;;;;;4.90;1.00;;;10.70;1.00;;;;;;6081318;23;20396;-86
2022/12/31 02:47:59;;;;;;;4.60;1.00;;;10.60;1.00;;;;;;6099348;23;20536;-87
2022/12/31 02:50:41;;;;;;;5.13;1.00;;;10.50;1.00;;;;;;6083133;23;20409;-85
2022/12/31 02:53:29;;;;;;;5.83;1.07;;;10.50;1.00;;;;;;6096937;23;20440;-88
2022/12/31 02:56:03;;;;;;;4.50;1.00;;;10.40;1.00;;;;;;6107247;23;20425;-85
2022/12/31 03:04:34;;;;;;;4.20;0.60;;;10.40;1.00;;;;;;6112472;23;20377;-86
2022/12/31 03:07:11;;;;;;;4.23;0.70;;;10.40;1.00;;;;;;6095692;23;20860;-86
2022/12/31 03:09:41;;;;;;;4.20;0.90;;;10.30;1.00;;;;;;6125535;23;20495;-86
2022/12/31 03:15:00;;;;;;;4.80;0.83;;;10.30;1.00;;;;;;6118748;23;20419;-86
2022/12/31 03:17:30;;;;;;;4.37;0.90;;;10.30;1.00;;;;;;6115281;23;20425;-86
2022/12/31 03:22:52;;;;;;;5.20;0.90;;;10.40;1.00;;;;;;6110693;23;20373;-86
2022/12/31 03:25:36;;;;;;;4.20;0.70;;;10.40;1.00;;;;;;6074228;23;20421;-86
2022/12/31 03:28:12;;;;;;;4.40;0.70;;;10.40;1.00;;;;;;6113395;23;20436;-86
2022/12/31 03:30:50;;;;;;;4.20;0.70;;;10.50;1.00;;;;;;6103967;23;20951;-86
2022/12/31 03:33:31;;;;;;;5.33;1.20;;;10.60;1.00;;;;;;6095301;23;20585;-86
2022/12/31 03:36:08;;;;;;;4.50;0.77;;;10.60;1.00;;;;;;6119283;23;20421;-86
2022/12/31 03:38:48;;;;;;;4.40;0.70;;;10.70;1.00;;;;;;6097877;23;20441;-86
2022/12/31 03:41:19;;;;;;;4.13;0.60;;;10.70;1.00;;;;;;6104929;23;20491;-87
2022/12/31 03:43:50;;;;;;;4.80;1.10;;;10.70;1.00;;;;;;6108838;23;20419;-88
2022/12/31 03:46:20;;;;;;;4.50;0.87;;;10.70;1.00;;;;;;6124094;23;20402;-81
2022/12/31 03:48:50;;;;;;;4.60;1.20;;;10.70;1.00;;;;;;6115898;23;20532;-82
2022/12/31 03:51:18;;;;;;;4.20;0.60;;;10.70;1.00;;;;;;6107935;23;21175;-83
2022/12/31 03:53:49;;;;;;;4.33;0.80;;;10.70;1.00;;;;;;6107314;23;20394;-82
2022/12/31 03:56:17;;;;;;;4.47;0.93;;;10.80;1.00;;;;;;6095830;23;20424;-82
2022/12/31 03:58:52;;;;;;;4.70;0.90;;;10.80;1.00;;;;;;6108012;23;20443;-81
2022/12/31 04:01:23;;;;;;;5.40;1.10;;;10.90;1.00;;;;;;6105000;23;20432;-82
2022/12/31 04:03:50;;;;;;;4.30;0.70;;;10.90;1.00;;;;;;6106529;23;20469;-82
2022/12/31 04:06:18;;;;;;;4.50;0.70;;;10.90;1.00;;;;;;6106491;23;20425;-82
2022/12/31 04:08:49;;;;;;;4.17;0.70;;;11.00;1.00;;;;;;6106185;23;20393;-83
2022/12/31 04:11:16;;;;;;;5.20;0.70;;;11.00;1.00;;;;;;6106640;23;20437;-82
2022/12/31 04:13:50;;;;;;;4.70;0.90;;;11.10;1.00;;;;;;6095286;23;20425;-83
2022/12/31 04:16:17;;;;;;;4.17;0.70;;;11.10;1.00;;;;;;6090563;23;20428;-82
2022/12/31 04:18:43;;;;;;;4.27;0.70;;;11.10;1.00;;;;;;6103659;23;20429;-82
2022/12/31 04:21:10;;;;;;;4.60;0.97;;;11.20;1.00;;;;;;6107970;23;20815;-82
2022/12/31 04:23:39;;;;;;;4.40;0.90;;;11.30;1.00;;;;;;6111010;23;20442;-83
2022/12/31 04:26:09;;;;;;;4.30;0.70;;;11.30;1.00;;;;;;6109076;23;20392;-81
2022/12/31 04:28:36;;;;;;;5.10;1.20;;;11.30;1.00;;;;;;6109873;23;20441;-81
2022/12/31 04:31:11;;;;;;;4.50;0.70;;;11.40;1.00;;;;;;6109526;23;20434;-82
2022/12/31 04:33:40;;;;;;;4.60;0.70;;;11.40;1.00;;;;;;6108201;23;20436;-82
2022/12/31 04:36:11;;;;;;;4.60;1.00;;;11.40;1.00;;;;;;6107452;23;20421;-83
2022/12/31 04:38:39;;;;;;;4.97;1.17;;;11.40;1.00;;;;;;6108014;23;20440;-83
2022/12/31 04:41:19;;;;;;;5.00;0.73;;;11.40;1.00;;;;;;6106983;23;20480;-82
2022/12/31 04:43:48;;;;;;;4.27;0.60;;;11.50;1.00;;;;;;6102652;23;20421;-81
2022/12/31 04:46:16;;;;;;;4.30;0.80;;;11.50;1.00;;;;;;6100643;23;20420;-82
2022/12/31 04:48:43;;;;;;;4.30;0.70;;;11.50;1.00;;;;;;6112640;23;20629;-81
2022/12/31 04:51:11;;;;;;;4.10;0.73;;;11.50;1.00;;;;;;6109884;23;20516;-81
2022/12/31 04:53:41;;;;;;;4.10;0.57;;;11.40;1.00;;;;;;6103227;23;20385;-82
2022/12/31 04:56:09;;;;;;;5.50;1.00;;;11.50;1.00;;;;;;6110544;23;20433;-81
2022/12/31 04:58:41;;;;;;;4.40;0.90;;;11.40;1.00;;;;;;6107489;23;20408;-82
2022/12/31 05:01:08;;;;;;;4.20;0.60;;;11.40;1.00;;;;;;6105996;23;20429;-83
2022/12/31 05:03:42;;;;;;;4.50;0.70;;;11.40;1.00;;;;;;6110080;23;20408;-82
2022/12/31 05:06:13;;;;;;;4.00;0.50;;;11.40;1.00;;;;;;6088807;23;20425;-83
2022/12/31 05:08:42;;;;;;;4.60;0.90;;;11.50;1.00;;;;;;6106757;23;20422;-81
2022/12/31 05:11:10;;;;;;;4.30;0.90;;;11.50;1.00;;;;;;6097872;23;21163;-82
2022/12/31 05:13:39;;;;;;;4.50;1.00;;;11.50;1.00;;;;;;6103447;23;20424;-81
2022/12/31 05:16:07;;;;;;;4.40;0.60;;;11.50;1.00;;;;;;6122024;23;20395;-81
2022/12/31 05:18:39;;;;;;;4.60;0.90;;;11.60;1.00;;;;;;6106846;23;21050;-83
2022/12/31 05:21:07;;;;;;;4.23;0.70;;;11.70;1.00;;;;;;6108894;23;20510;-81
2022/12/31 05:23:37;;;;;;;4.20;0.67;;;11.70;1.00;;;;;;6109323;23;20449;-82
2022/12/31 05:26:06;;;;;;;4.40;0.80;;;11.80;1.00;;;;;;6095980;23;20476;-82
2022/12/31 05:28:38;;;;;;;5.77;0.83;;;11.80;1.00;;;;;;6108625;23;20481;-82
2022/12/31 05:31:05;;;;;;;4.13;0.70;;;11.90;1.00;;;;;;6111312;23;20521;-82
2022/12/31 05:33:32;;;;;;;4.90;0.80;;;11.90;1.00;;;;;;6106684;23;20426;-83
2022/12/31 05:36:00;;;;;;;4.30;0.90;;;12.00;1.00;;;;;;6097231;23;20446;-81
2022/12/31 05:38:27;;;;;;;4.20;0.70;;;12.00;1.00;;;;;;6128024;23;20462;-82
2022/12/31 05:41:06;;;;;;;4.50;0.70;;;12.00;1.00;;;;;;6110252;23;20390;-81
2022/12/31 05:43:38;;;;;;;4.33;0.80;;;11.90;1.00;;;;;;6108083;23;20412;-79
2022/12/31 05:46:05;;;;;;;5.20;0.90;;;11.90;1.00;;;;;;6085513;23;20398;-80
2022/12/31 05:48:33;;;;;;;5.13;0.80;;;11.80;1.00;;;;;;6106102;23;20401;-81
2022/12/31 05:51:00;;;;;;;4.57;0.80;;;11.80;1.00;;;;;;6101454;23;20410;-81
2022/12/31 05:53:28;;;;;;;4.80;0.90;;;11.80;1.00;;;;;;6103715;23;20484;-80
2022/12/31 05:56:02;;;;;;;4.80;1.20;;;11.80;1.00;;;;;;6105112;23;20398;-81
2022/12/31 05:58:31;;;;;;;4.27;0.97;;;11.80;1.00;;;;;;6108299;23;20421;-85
2022/12/31 06:01:00;;;;;;;4.20;1.00;;;11.80;1.00;;;;;;6099768;23;20388;-81
2022/12/31 06:03:28;;;;;;;4.30;1.00;;;11.80;1.00;;;;;;6098805;23;20457;-81
2022/12/31 06:06:01;;;;;;;4.20;0.80;;;11.70;1.00;;;;;;6126064;23;20434;-81
2022/12/31 06:08:28;;;;;;;4.37;0.80;;;11.70;1.00;;;;;;6103896;23;21207;-82
2022/12/31 06:11:00;;;;;;;4.30;0.90;;;11.70;1.00;;;;;;6101835;23;20424;-81
2022/12/31 06:13:27;;;;;;;4.40;0.80;;;11.70;1.00;;;;;;6096092;23;20421;-81
2022/12/31 06:16:00;;;;;;;5.07;1.00;;;11.70;1.00;;;;;;6106531;23;20955;-83
2022/12/31 06:18:26;;;;;;;4.40;0.90;;;11.70;1.00;;;;;;6097437;23;20421;-82
2022/12/31 06:20:55;;;;;;;4.00;0.70;;;11.70;1.00;;;;;;6082229;23;20436;-82
2022/12/31 06:23:22;;;;;;;4.40;1.00;;;11.70;1.00;;;;;;6102733;23;20421;-82
2022/12/31 06:25:49;;;;;;;4.23;0.83;;;11.70;1.00;;;;;;6113953;23;20467;-82
2022/12/31 06:28:22;;;;;;;4.20;0.73;;;11.70;1.00;;;;;;6089275;23;20599;-84
2022/12/31 06:30:49;;;;;;;4.27;1.00;;;11.70;1.00;;;;;;6109258;23;20433;-81
2022/12/31 06:33:22;;;;;;;4.50;0.90;;;11.70;1.00;;;;;;6102047;23;20401;-80
2022/12/31 06:35:48;;;;;;;4.30;0.90;;;11.70;1.00;;;;;;6074537;23;20485;-83
2022/12/31 06:38:20;;;;;;;4.10;0.80;;;11.80;1.00;;;;;;6092607;23;20418;-82
2022/12/31 06:40:47;;;;;;;4.17;0.80;;;11.80;1.00;;;;;;6109512;23;20433;-81
2022/12/31 06:43:19;;;;;;;4.50;0.93;;;11.80;1.00;;;;;;6096228;23;20392;-81
2022/12/31 06:45:46;;;;;;;5.00;0.80;;;11.90;1.00;;;;;;6117740;23;20425;-82
2022/12/31 06:48:13;;;;;;;4.33;0.60;;;11.90;1.00;;;;;;6106711;23;20433;-81
2022/12/31 06:50:42;;;;;;;4.93;0.90;;;11.90;1.00;;;;;;6094796;23;20409;-80
2022/12/31 06:53:09;;;;;;;4.40;0.77;;;12.00;1.00;;;;;;6095184;23;20404;-82
2022/12/31 06:55:41;;;;;;;4.00;0.60;;;12.00;1.00;;;;;;6124748;23;20390;-80
2022/12/31 06:58:13;;;;;;;4.30;0.60;;;12.10;1.00;;;;;;6091785;23;20475;-82
2022/12/31 07:00:53;;;;;;;5.07;0.70;;;12.20;1.00;;;;;;6121097;23;20407;-81
2022/12/31 07:03:33;;;;;;;5.00;0.80;;;12.20;1.00;;;;;;6115392;23;20434;-81
2022/12/31 07:06:09;;;;;;;4.40;0.70;;;12.20;1.00;;;;;;6100435;23;20413;-82
2022/12/31 07:08:49;;;;;;;4.33;0.73;;;12.20;1.00;;;;;;6107905;23;20470;-81
2022/12/31 07:11:23;;;;;;;4.83;0.70;;;12.30;1.00;;;;;;6107114;23;20422;-81
2022/12/31 07:14:05;;;;;;;4.07;0.70;;;12.30;1.00;;;;;;6092159;23;20426;-81
2022/12/31 07:16:44;;;;;;;4.37;0.63;;;12.40;1.00;;;;;;6100543;23;20429;-81
2022/12/31 07:19:24;;;;;;;4.07;0.60;;;12.50;1.00;;;;;;6105768;23;20416;-80
2022/12/31 07:22:00;;;;;;;4.50;1.00;;;12.50;1.00;;;;;;6104975;23;20836;-81
2022/12/31 07:24:28;;;;;;;4.13;0.60;;;12.50;1.00;;;;;;6118079;23;20419;-82
2022/12/31 07:27:11;;;;;;;3.93;0.50;;;12.60;1.00;;;;;;6107005;23;20419;-82
2022/12/31 07:29:53;;;;;;;4.20;0.53;;;12.60;1.00;;;;;;6112535;23;20387;-80
2022/12/31 07:32:40;;;;;;;4.40;0.70;;;12.60;1.00;;;;;;6105989;23;20398;-81
2022/12/31 07:35:19;;;;;;;4.03;0.57;;;12.70;1.00;;;;;;6102677;23;20416;-85
2022/12/31 07:38:00;;;;;;;4.30;0.80;;;12.70;1.00;;;;;;6096832;23;20447;-82
2022/12/31 07:40:34;;;;;;;4.13;0.60;;;12.80;1.00;;;;;;6097956;23;20438;-81
2022/12/31 07:43:09;;;;;;;4.17;0.60;;;12.80;1.00;;;;;;6092611;23;20407;-81
2022/12/31 07:45:47;;;;;;;4.40;0.70;;;12.80;1.00;;;;;;6102750;23;20387;-84
2022/12/31 07:48:23;;;;;;;4.17;0.60;;;12.90;1.00;;;;;;6104566;23;20512;-82
2022/12/31 07:50:53;;;;;;;4.40;0.60;;;13.00;1.00;;;;;;6101979;23;20426;-81
2022/12/31 07:53:22;;;;;;;4.40;0.67;;;13.00;1.00;;;;;;6103678;23;20441;-81
2022/12/31 07:55:59;;;;;;;4.40;0.70;;;13.10;1.00;;;;;;6098066;23;20469;-82
2022/12/31 07:58:31;;;;;;;4.30;0.80;;;13.20;1.00;;;;;;6094858;23;20419;-83
2022/12/31 08:01:03;;;;;;;4.70;1.00;;;13.30;1.00;;;;;;6091573;23;20387;-82
2022/12/31 08:03:47;;;;;;;4.77;0.80;;;13.40;1.00;;;;;;6105280;23;20472;-82
2022/12/31 08:06:27;;;;;;;4.87;0.93;;;13.40;1.00;;;;;;6095687;23;20424;-81
2022/12/31 08:09:03;;;;;;;5.90;0.50;;;13.50;1.00;;;;;;6101350;23;20444;-82
2022/12/31 08:11:40;;;;;;;4.20;0.70;;;13.60;1.00;;;;;;6083725;23;20483;-81
2022/12/31 08:14:10;;;;;;;4.30;0.80;;;13.70;1.00;;;;;;6112971;23;20435;-82
2022/12/31 08:16:41;;;;;;;4.40;0.70;;;13.70;1.00;;;;;;6090175;23;20402;-82
2022/12/31 08:19:21;;;;;;;4.60;0.83;;;13.80;1.00;;;;;;6113371;23;20928;-81
2022/12/31 08:22:00;;;;;;;4.97;0.67;;;13.80;1.00;;;;;;6122606;23;20941;-83
2022/12/31 08:24:44;;;;;;;4.30;0.70;;;13.90;1.00;;;;;;6098871;23;21244;-83
2022/12/31 08:27:22;;;;;;;4.40;0.80;;;13.90;1.00;;;;;;6119104;23;20923;-83
2022/12/31 08:29:57;;;;;;;4.50;0.60;;;13.90;1.00;;;;;;6105468;23;20439;-82
2022/12/31 08:32:31;;;;;;;4.23;0.57;;;13.90;1.00;;;;;;6106323;23;21116;-82
2022/12/31 08:35:08;;;;;;;4.80;0.90;;;14.00;1.00;;;;;;6107558;23;20404;-84
2022/12/31 08:37:42;;;;;;;5.20;1.50;;;14.00;1.00;;;;;;6096060;23;20439;-84
2022/12/31 08:40:24;;;;;;;4.67;0.70;;;14.00;1.00;;;;;;6106792;23;20422;-84
2022/12/31 08:43:20;;;;;;;5.87;0.67;;;14.10;1.00;;;;;;6084254;23;20468;-85
2022/12/31 08:45:49;;;;;;;5.10;0.60;;;14.20;1.00;;;;;;6081331;23;20512;-83
2022/12/31 08:48:47;;;;;;;5.07;0.70;;;14.20;1.00;;;;;;6093855;23;20389;-83
2022/12/31 08:51:25;;;;;;;4.50;0.60;;;14.20;1.00;;;;;;6095259;23;20416;-86
2022/12/31 08:53:54;;;;;;;4.90;1.00;;;14.20;1.00;;;;;;6128274;23;20432;-84
2022/12/31 08:56:46;;;;;;;5.23;0.73;;;14.30;1.00;;;;;;6088669;23;20421;-84
2022/12/31 09:03:21;;;;;;;4.80;0.90;;;14.60;1.00;;;;;;6121685;23;20368;-80
2022/12/31 09:06:01;;;;;;;4.70;1.00;;;14.70;1.00;;;;;;6108636;23;20532;-83
2022/12/31 09:08:40;;;;;;;4.40;0.60;;;14.80;1.00;;;;;;6088545;23;20456;-83
2022/12/31 09:11:13;;;;;;;5.97;0.90;;;14.90;1.00;;;;;;6096110;23;20688;-83
2022/12/31 09:14:11;;;;;;;4.50;0.70;;;15.10;1.00;;;;;;6102869;23;20411;-80
2022/12/31 09:16:49;;;;;;;4.60;0.90;;;15.20;1.00;;;;;;6099682;23;20474;-81
2022/12/31 09:19:20;;;;;;;5.50;0.90;;;15.40;1.00;;;;;;6089534;23;20435;-80
2022/12/31 09:21:48;;;;;;;5.17;0.90;;;15.50;1.00;;;;;;6087048;23;20833;-81
2022/12/31 09:24:23;;;;;;;4.80;1.10;;;15.50;1.00;;;;;;6094522;23;20536;-86
2022/12/31 09:26:59;;;;;;;4.80;1.00;;;15.70;1.00;;;;;;6108832;23;20431;-81
2022/12/31 09:29:44;;;;;;;4.60;0.73;;;15.80;1.00;;;;;;6090227;23;20436;-82
2022/12/31 09:32:27;;;;;;;4.90;0.90;;;15.90;1.00;;;;;;6112815;23;20413;-82
2022/12/31 09:35:08;;;;;;;6.33;1.10;;;16.10;1.00;;;;;;6099710;23;20514;-81
2022/12/31 09:37:46;;;;;;;4.50;1.00;;;16.30;1.00;;;;;;6082783;23;20455;-83
2022/12/31 09:40:47;;;;;;;4.63;0.73;;;16.40;1.00;;;;;;6085876;23;20509;-85
2022/12/31 09:44:02;;;;;;;4.30;0.70;;;16.60;1.00;;;;;;6101031;23;20397;-84
2022/12/31 09:47:07;;;;;;;5.00;0.73;;;16.90;1.00;;;;;;6100927;23;20423;-83
2022/12/31 09:50:14;;;;;;;4.83;0.80;;;17.00;1.00;;;;;;6103267;23;20442;-84
2022/12/31 09:53:07;;;;;;;4.30;0.80;;;17.00;1.00;;;;;;6102784;23;20446;-83
2022/12/31 09:55:47;;;;;;;4.40;0.70;;;17.00;1.00;;;;;;6108084;23;21038;-85
2022/12/31 09:58:31;;;;;;;4.47;0.90;;;17.00;1.00;;;;;;6097643;23;20425;-80
2022/12/31 10:01:12;;;;;;;5.00;0.80;;;17.40;1.00;;;;;;6122412;23;20396;-85
2022/12/31 10:04:01;;;;;;;5.10;1.10;;;17.90;1.00;;;;;;6108087;23;20395;-85
2022/12/31 10:06:41;;;;;;;5.43;1.10;;;18.20;1.00;;;;;;6099875;23;20425;-81
2022/12/31 10:09:41;;;;;;;5.10;0.97;;;18.40;1.00;;;;;;6065824;23;20422;-83
2022/12/31 10:12:43;;;;;;;5.00;0.97;;;18.10;1.00;;;;;;6059534;23;20443;-84
2022/12/31 10:15:41;;;;;;;5.50;1.00;;;17.90;1.00;;;;;;6092349;23;20559;-85
2022/12/31 10:18:23;;;;;;;5.13;0.80;;;17.60;1.00;;;;;;6112224;23;20424;-80
2022/12/31 10:21:09;;;;;;;4.87;0.93;;;17.40;1.00;;;;;;6104385;23;20518;-81
2022/12/31 10:24:09;;;;;;;5.50;0.97;;;17.30;1.00;;;;;;6108576;23;20438;-81
2022/12/31 10:27:01;;;;;;;5.90;1.07;;;17.30;1.00;;;;;;6098352;23;20506;-83
2022/12/31 10:30:00;;;;;;;5.83;0.90;;;17.40;1.00;;;;;;6080049;23;20958;-81
2022/12/31 10:32:41;;;;;;;6.20;0.80;;;17.30;1.00;;;;;;6114205;23;20428;-85
2022/12/31 10:35:27;;;;;;;4.47;0.73;;;17.40;1.00;;;;;;6106844;23;20386;-85
2022/12/31 10:38:06;;;;;;;5.67;1.10;;;17.30;1.00;;;;;;6113660;23;20445;-85
2022/12/31 10:41:03;;;;;;;5.53;1.00;;;17.40;1.00;;;;;;6101335;23;20460;-85
2022/12/31 10:44:04;;;;;;;4.83;0.90;;;17.40;1.00;;;;;;6102899;23;20415;-85
2022/12/31 10:47:07;;;;;;;5.93;1.10;;;17.40;1.00;;;;;;6100980;23;20829;-83
2022/12/31 10:49:57;;;;;;;5.57;1.27;;;17.40;1.00;;;;;;5956019;24;20665;-85
2022/12/31 10:53:06;;;;;;;4.70;0.90;;;17.30;1.00;;;;;;5990127;23;21099;-83
2022/12/31 10:56:08;;;;;;;4.60;0.90;;;17.40;1.00;;;;;;6056767;23;20447;-83
2022/12/31 10:58:54;;;;;;;5.83;1.03;;;17.30;1.00;;;;;;6097923;23;20431;-84
2022/12/31 11:01:46;;;;;;;6.07;1.50;;;17.30;1.00;;;;;;6092932;23;20487;-86
2022/12/31 11:04:51;;;;;;;9.53;1.90;;;17.20;1.00;;;;;;6095298;23;20420;-83
2022/12/31 11:07:50;;;;;;;5.27;1.33;;;17.20;1.00;;;;;;6041325;23;20965;-84
2022/12/31 11:10:50;;;;;;;4.83;1.00;;;17.20;1.00;;;;;;6099776;23;20507;-85
2022/12/31 11:14:11;;;;;;;4.80;1.00;;;17.00;1.00;;;;;;6098310;23;20439;-85
2022/12/31 11:17:01;;;;;;;4.90;1.20;;;17.00;1.00;;;;;;6071053;23;20503;-85
2022/12/31 11:19:36;;;;;;;5.10;1.20;;;17.00;1.00;;;;;;6091226;23;20443;-83
2022/12/31 11:22:36;;;;;;;6.57;1.30;;;17.00;1.00;;;;;;6102785;23;20455;-85
2022/12/31 11:25:22;;;;;;;5.20;1.10;;;17.10;1.00;;;;;;6098648;23;20435;-85
2022/12/31 11:28:13;;;;;;;5.40;1.10;;;17.20;1.00;;;;;;6101952;23;20808;-85
2022/12/31 11:30:57;;;;;;;4.80;1.00;;;17.20;1.00;;;;;;6104724;23;20771;-84
2022/12/31 11:33:34;;;;;;;6.00;1.77;;;17.30;1.00;;;;;;6105200;23;20415;-84
2022/12/31 11:36:17;;;;;;;4.93;1.03;;;17.40;1.00;;;;;;6104299;23;20462;-83
2022/12/31 11:38:51;;;;;;;5.00;1.30;;;17.50;1.00;;;;;;6100519;23;20419;-83
2022/12/31 11:41:25;;;;;;;5.77;1.50;;;17.60;1.00;;;;;;6100102;23;20842;-84
2022/12/31 11:44:02;;;;;;;5.90;1.13;;;17.70;1.00;;;;;;6102977;23;20434;-82
2022/12/31 11:46:56;;;;;;;4.93;1.30;;;17.70;1.00;;;;;;6103820;23;20432;-82
2022/12/31 11:49:34;;;;;;;5.37;1.57;;;17.90;1.00;;;;;;6100545;23;20856;-82
2022/12/31 11:52:27;;;;;;;5.00;1.13;;;18.10;1.00;;;;;;6094828;23;20455;-82
2022/12/31 11:55:27;;;;;;;5.00;1.10;;;18.20;1.00;;;;;;6101682;23;20490;-81
2022/12/31 11:57:54;;;;;;;5.63;1.50;;;18.30;1.00;;;;;;6103767;23;20543;-82
2022/12/31 12:00:25;;;;;;;5.30;1.10;;;18.30;1.00;;;;;;6101179;23;20916;-82
2022/12/31 12:02:59;;;;;;;5.00;1.20;;;18.20;1.00;;;;;;6091338;23;20479;-81
2022/12/31 12:05:28;;;;;;;5.97;1.70;;;18.10;1.00;;;;;;6085907;23;20464;-83
2022/12/31 12:07:56;;;;;;;5.37;1.20;;;18.10;1.00;;;;;;6084448;23;20429;-83
2022/12/31 12:10:25;;;;;;;5.50;1.13;;;18.20;1.00;;;;;;6086846;23;20407;-82
2022/12/31 12:12:53;;;;;;;4.50;1.00;;;18.20;1.00;;;;;;6080548;23;20922;-82
2022/12/31 12:15:24;;;;;;;4.97;0.80;;;18.20;1.00;;;;;;6088855;23;20420;-82
2022/12/31 12:17:58;;;;;;;5.03;1.37;;;18.20;1.00;;;;;;6090272;23;20512;-83
2022/12/31 12:20:31;;;;;;;6.63;1.20;;;18.20;1.00;;;;;;6103869;23;20417;-82
2022/12/31 12:23:00;;;;;;;4.67;0.97;;;18.30;1.00;;;;;;6099929;23;20564;-80
2022/12/31 12:25:38;;;;;;;5.40;0.97;;;18.30;1.00;;;;;;6097868;23;20912;-83
2022/12/31 12:28:29;;;;;;;6.83;1.60;;;18.30;1.00;;;;;;6100048;23;20420;-83
2022/12/31 12:30:59;;;;;;;5.50;1.37;;;18.30;1.00;;;;;;6092677;23;20448;-82
2022/12/31 12:33:29;;;;;;;5.17;1.30;;;18.30;1.00;;;;;;6091003;23;20758;-82
2022/12/31 12:36:15;;;;;;;4.90;0.90;;;18.20;1.00;;;;;;6104209;23;21087;-83
2022/12/31 12:38:47;;;;;;;6.93;1.07;;;18.20;1.00;;;;;;6102559;23;20430;-83
2022/12/31 12:41:22;;;;;;;5.47;1.40;;;18.20;1.00;;;;;;6089966;23;20826;-84
2022/12/31 12:43:50;;;;;;;8.97;1.60;;;18.10;1.00;;;;;;6089608;23;20933;-84
2022/12/31 12:46:26;;;;;;;6.67;1.70;;;18.10;1.00;;;;;;6088486;23;20421;-83
2022/12/31 12:48:57;;;;;;;4.57;1.10;;;18.20;1.00;;;;;;6095339;23;20929;-83
2022/12/31 12:51:40;;;;;;;6.03;1.37;;;18.10;1.00;;;;;;6105463;23;20420;-83
2022/12/31 12:54:20;;;;;;;5.73;0.93;;;18.10;1.00;;;;;;6104598;23;20730;-83
2022/12/31 12:56:57;;;;;;;6.20;1.00;;;18.10;1.00;;;;;;6105406;23;20436;-83
2022/12/31 12:59:51;;;;;;;7.23;1.67;;;18.10;1.00;;;;;;6094067;23;20776;-82
2022/12/31 13:03:08;;;;;;;7.70;1.63;;;18.10;1.00;;;;;;6095378;23;20831;-85
2022/12/31 13:05:56;;;;;;;5.73;1.43;;;18.10;1.00;;;;;;6104998;23;20480;-84
2022/12/31 13:08:37;;;;;;;6.00;1.40;;;18.00;1.00;;;;;;6104553;23;20429;-84
2022/12/31 13:11:24;;;;;;;5.73;1.37;;;18.00;1.00;;;;;;6104312;23;20448;-82
2022/12/31 13:14:01;;;;;;;5.00;1.17;;;18.10;1.00;;;;;;6091907;23;20892;-84
2022/12/31 13:16:36;;;;;;;5.37;1.63;;;18.10;1.00;;;;;;6089581;23;20443;-84
2022/12/31 13:19:11;;;;;;;5.30;1.13;;;18.20;1.00;;;;;;6088666;23;20446;-86
2022/12/31 13:21:49;;;;;;;5.17;1.20;;;18.10;1.00;;;;;;6082865;23;20449;-88
2022/12/31 13:24:28;;;;;;;5.73;1.30;;;18.20;1.00;;;;;;6083566;23;20917;-85
2022/12/31 13:27:02;;;;;;;5.20;1.23;;;18.20;1.00;;;;;;6091291;23;20912;-83
2022/12/31 13:29:32;;;;;;;5.20;1.30;;;18.10;1.00;;;;;;6100885;23;20428;-83
2022/12/31 13:32:03;;;;;;;7.43;1.13;;;18.20;1.00;;;;;;6102235;23;20709;-86
2022/12/31 13:34:34;;;;;;;5.97;1.20;;;18.10;1.00;;;;;;6092792;23;20438;-85
2022/12/31 13:37:12;;;;;;;5.37;1.20;;;18.10;1.00;;;;;;6104451;23;20433;-84
2022/12/31 13:39:43;;;;;;;5.17;1.20;;;18.10;1.00;;;;;;6099001;23;20451;-88
2022/12/31 13:42:18;;;;;;;5.60;1.27;;;18.10;1.00;;;;;;6100282;23;20428;-84
2022/12/31 13:44:51;;;;;;;5.13;1.20;;;18.10;1.00;;;;;;6100525;23;21406;-82
2022/12/31 13:47:26;;;;;;;5.43;1.13;;;18.10;1.00;;;;;;6099943;23;20429;-84
2022/12/31 13:49:57;;;;;;;6.83;1.37;;;18.20;1.00;;;;;;6100571;23;20466;-83
2022/12/31 13:52:33;;;;;;;4.60;1.20;;;18.20;1.00;;;;;;6101357;23;21104;-83
2022/12/31 13:55:11;;;;;;;4.90;1.20;;;18.20;1.00;;;;;;6102158;23;20479;-85
2022/12/31 13:57:43;;;;;;;5.20;1.30;;;18.20;1.00;;;;;;6102510;23;21144;-85
2022/12/31 14:00:22;;;;;;;6.77;1.70;;;18.20;1.00;;;;;;6101649;23;20554;-83
2022/12/31 14:02:59;;;;;;;4.40;1.20;;;18.20;1.00;;;;;;6104618;23;20539;-82
2022/12/31 14:05:35;;;;;;;5.97;1.80;;;18.20;1.00;;;;;;6101217;23;20526;-84
2022/12/31 14:08:18;;;;;;;4.63;1.30;;;18.20;1.00;;;;;;6098304;23;20436;-84
2022/12/31 14:10:57;;;;;;;5.47;1.43;;;18.20;1.00;;;;;;6099190;23;20436;-85
2022/12/31 14:16:32;;;;;;;5.23;1.20;;;18.00;1.00;;;;;;6086785;23;20416;-86
2022/12/31 14:19:07;;;;;;;5.60;1.37;;;17.90;1.00;;;;;;6106855;23;20516;-87
2022/12/31 14:21:39;;;;;;;6.07;1.57;;;17.70;1.00;;;;;;6107604;23;21212;-86
2022/12/31 14:24:22;;;;;;;5.70;1.93;;;17.70;1.00;;;;;;6106019;23;20443;-84